createdAt,value
2022-11-08T00:00:20.538Z,100411.66
2022-11-08T00:02:48.500Z,100403.97
2022-11-08T00:05:34.122Z,100410.63
2022-11-08T00:08:22.849Z,100415.91
2022-11-08T00:11:08.125Z,100416.66
2022-11-08T00:13:53.660Z,100415.75
2022-11-08T00:16:21.383Z,100404.47
2022-11-08T00:18:49.083Z,100401.19
2022-11-08T00:21:16.871Z,100410.63
2022-11-08T00:23:45.952Z,100409.88
2022-11-08T00:26:13.677Z,100405.50
2022-11-08T00:28:41.501Z,100416.59
2022-11-08T00:31:09.220Z,100423.50
2022-11-08T00:33:37.425Z,100362.28
2022-11-08T00:36:05.667Z,100399.34
2022-11-08T00:38:33.382Z,100408.75
2022-11-08T00:41:02.444Z,100416.28
2022-11-08T00:43:30.137Z,100405.34
2022-11-08T00:45:57.839Z,100418.25
2022-11-08T00:48:25.508Z,100409.59
2022-11-08T00:50:53.266Z,100416.41
2022-11-08T00:53:20.965Z,100414.84
2022-11-08T00:55:48.716Z,100414.69
2022-11-08T00:58:18.826Z,100409.47
2022-11-08T01:00:48.049Z,100336.25
2022-11-08T01:03:21.797Z,100419.94
2022-11-08T01:05:50.489Z,100412.88
2022-11-08T01:08:19.046Z,100409.47
2022-11-08T01:10:49.352Z,100411.75
2022-11-08T01:13:19.723Z,100419.16
2022-11-08T01:15:47.709Z,100415.63
2022-11-08T01:18:17.347Z,100418.84
2022-11-08T01:20:46.947Z,100423.50
2022-11-08T01:23:15.155Z,100412.88
2022-11-08T01:25:44.628Z,100427.03
2022-11-08T01:28:13.071Z,100427.19
2022-11-08T01:30:43.933Z,100413.25
2022-11-08T01:33:12.491Z,100416.66
2022-11-08T01:35:40.352Z,100413.34
2022-11-08T01:38:09.460Z,100416.53
2022-11-08T01:40:43.928Z,100419.16
2022-11-08T01:43:36.107Z,100391.78
2022-11-08T01:46:36.197Z,100411.31
2022-11-08T01:49:19.048Z,100407.03
2022-11-08T01:51:51.371Z,100415.63
2022-11-08T01:54:26.739Z,100415.91
2022-11-08T01:56:55.458Z,100413.97
2022-11-08T01:59:23.953Z,100409.59
2022-11-08T02:01:53.592Z,100394.22
2022-11-08T02:04:21.564Z,100410.41
2022-11-08T02:06:50.136Z,100405.28
2022-11-08T02:09:19.855Z,100401.84
2022-11-08T02:11:49.169Z,100403.38
2022-11-08T02:14:18.861Z,100404.47
2022-11-08T02:16:46.579Z,100365.91
2022-11-08T02:19:23.018Z,100395.72
2022-11-08T02:21:56.208Z,100392.19
2022-11-08T02:24:25.589Z,100379.50
2022-11-08T02:26:55.946Z,100378.63
2022-11-08T02:29:28.506Z,100393.75
2022-11-08T02:31:57.071Z,100377.06
2022-11-08T02:34:29.253Z,100396.69
2022-11-08T02:36:57.695Z,100399.13
2022-11-08T02:39:26.856Z,100389.50
2022-11-08T02:41:54.602Z,100385.13
2022-11-08T02:44:22.375Z,100391.22
2022-11-08T02:46:50.115Z,100381.88
2022-11-08T02:49:18.045Z,100397.41
2022-11-08T02:51:45.739Z,100395.59
2022-11-08T02:54:13.423Z,100385.13
2022-11-08T02:56:42.511Z,100387.81
2022-11-08T02:59:10.207Z,100392.06
2022-11-08T03:01:38.176Z,100389.72
2022-11-08T03:04:06.369Z,100385.25
2022-11-08T03:06:34.098Z,100387.13
2022-11-08T03:09:01.799Z,100375.22
2022-11-08T03:11:29.720Z,100392.19
2022-11-08T03:13:59.320Z,100392.06
2022-11-08T03:16:27.066Z,100383.66
2022-11-08T03:18:54.956Z,100383.66
2022-11-08T03:21:22.624Z,100398.28
2022-11-08T03:23:50.335Z,100385.34
2022-11-08T03:26:18.210Z,100389.00
2022-11-08T03:28:46.002Z,100384.56
2022-11-08T03:31:15.099Z,100387.16
2022-11-08T03:33:42.814Z,100384.88
2022-11-08T03:36:11.043Z,100379.81
2022-11-08T03:38:38.736Z,100385.88
2022-11-08T03:41:06.885Z,100386.00
2022-11-08T03:43:34.650Z,100379.00
2022-11-08T03:46:02.406Z,100308.25
2022-11-08T03:48:31.503Z,100371.91
2022-11-08T03:50:59.180Z,100365.00
2022-11-08T03:53:26.868Z,100378.84
2022-11-08T03:55:54.695Z,100368.47
2022-11-08T03:58:22.424Z,100372.75
2022-11-08T04:00:50.285Z,100368.41
2022-11-08T04:03:18.192Z,100380.53
2022-11-08T04:05:47.497Z,100362.34
2022-11-08T04:08:15.476Z,100366.72
2022-11-08T04:10:43.479Z,100371.84
2022-11-08T04:13:28.917Z,100371.84
2022-11-08T04:15:58.080Z,100371.69
2022-11-08T04:18:43.447Z,100367.44
2022-11-08T04:21:21.681Z,100365.69
2022-11-08T04:23:51.175Z,100363.19
2022-11-08T04:26:19.174Z,100363.97
2022-11-08T04:28:46.936Z,100363.97
2022-11-08T04:31:16.283Z,100332.50
2022-11-08T04:33:44.293Z,100317.00
2022-11-08T04:36:16.036Z,100299.69
2022-11-08T04:38:44.085Z,100356.06
2022-11-08T04:41:13.294Z,100357.03
2022-11-08T04:43:41.654Z,100356.84
2022-11-08T04:46:11.082Z,100356.84
2022-11-08T04:48:39.489Z,100345.41
2022-11-08T04:51:09.619Z,100346.75
2022-11-08T04:53:38.751Z,100280.72
2022-11-08T04:56:08.659Z,100354.16
2022-11-08T04:58:37.410Z,100347.38
2022-11-08T05:01:06.637Z,100358.59
2022-11-08T05:03:34.667Z,100352.34
2022-11-08T05:06:03.186Z,100343.94
2022-11-08T05:08:31.245Z,100275.94
2022-11-08T05:11:04.596Z,100324.25
2022-11-08T05:13:32.442Z,100343.94
2022-11-08T05:16:01.967Z,100347.47
2022-11-08T05:18:29.904Z,100305.63
2022-11-08T05:21:15.932Z,100302.28
2022-11-08T05:23:44.165Z,100343.31
2022-11-08T05:26:14.885Z,100336.56
2022-11-08T05:28:42.743Z,100340.88
2022-11-08T05:31:11.107Z,100318.84
2022-11-08T05:33:39.015Z,100326.00
2022-11-08T05:36:10.301Z,100346.69
2022-11-08T05:38:38.672Z,100334.97
2022-11-08T05:41:08.259Z,100347.03
2022-11-08T05:43:37.565Z,100340.41
2022-11-08T05:46:05.579Z,100281.81
2022-11-08T05:48:33.646Z,100301.44
2022-11-08T05:51:01.501Z,100322.06
2022-11-08T05:53:29.685Z,100338.31
2022-11-08T05:55:59.382Z,100335.75
2022-11-08T05:58:27.452Z,100331.56
2022-11-08T06:01:02.311Z,100340.19
2022-11-08T06:03:30.995Z,100341.09
2022-11-08T06:06:03.504Z,100324.03
2022-11-08T06:08:31.248Z,100332.69
2022-11-08T06:11:04.049Z,100329.16
2022-11-08T06:13:32.064Z,100326.78
2022-11-08T06:16:02.713Z,100341.53
2022-11-08T06:18:31.093Z,100335.41
2022-11-08T06:20:59.441Z,100295.16
2022-11-08T06:23:27.511Z,100334.41
2022-11-08T06:25:55.634Z,100317.22
2022-11-08T06:28:23.435Z,100303.34
2022-11-08T06:30:51.550Z,100322.19
2022-11-08T06:33:21.335Z,100325.66
2022-11-08T06:35:49.336Z,100323.84
2022-11-08T06:38:17.064Z,100325.66
2022-11-08T06:40:44.910Z,100294.94
2022-11-08T06:43:18.178Z,100321.44
2022-11-08T06:45:47.550Z,100319.16
2022-11-08T06:48:15.534Z,100327.00
2022-11-08T06:50:45.031Z,100326.16
2022-11-08T06:53:14.310Z,100327.66
2022-11-08T06:55:42.216Z,100327.56
2022-11-08T06:58:11.462Z,100322.34
2022-11-08T07:00:39.483Z,100322.59
2022-11-08T07:03:07.267Z,100326.22
2022-11-08T07:05:36.683Z,100331.34
2022-11-08T07:08:06.511Z,100327.66
2022-11-08T07:10:34.974Z,100319.16
2022-11-08T07:13:04.455Z,100318.81
2022-11-08T07:15:33.043Z,100320.97
2022-11-08T07:18:02.683Z,100314.84
2022-11-08T07:20:31.145Z,100324.41
2022-11-08T07:22:59.393Z,100317.28
2022-11-08T07:25:29.603Z,100325.75
2022-11-08T07:27:57.337Z,100318.91
2022-11-08T07:30:25.770Z,100309.38
2022-11-08T07:32:53.687Z,100317.91
2022-11-08T07:35:21.397Z,100300.16
2022-11-08T07:37:49.135Z,100269.69
2022-11-08T07:40:17.323Z,100307.00
2022-11-08T07:45:34.170Z,100315.66
2022-11-08T07:48:09.782Z,100304.84
2022-11-08T07:50:38.969Z,100305.91
2022-11-08T07:53:06.722Z,100300.09
2022-11-08T07:55:37.465Z,100307.56
2022-11-08T07:58:07.568Z,100314.16
2022-11-08T08:00:37.749Z,100316.44
2022-11-08T08:03:07.129Z,100303.47
2022-11-08T08:05:37.251Z,100302.06
2022-11-08T08:08:05.726Z,100304.50
2022-11-08T08:10:33.843Z,100308.63
2022-11-08T08:13:01.658Z,100317.00
2022-11-08T08:15:30.761Z,100313.81
2022-11-08T08:18:01.172Z,100311.44
2022-11-08T08:20:29.443Z,100246.41
2022-11-08T08:22:57.143Z,100301.09
2022-11-08T08:25:25.021Z,100301.78
2022-11-08T08:27:54.536Z,100301.41
2022-11-08T08:30:23.588Z,100299.31
2022-11-08T08:33:21.840Z,100284.91
2022-11-08T08:35:43.834Z,100274.53
2022-11-08T08:38:13.808Z,100276.84
2022-11-08T08:40:41.846Z,100242.16
2022-11-08T08:43:09.650Z,100263.44
2022-11-08T08:45:37.787Z,100279.19
2022-11-08T08:48:07.439Z,100265.03
2022-11-08T08:50:35.255Z,100252.09
2022-11-08T08:53:04.828Z,100241.91
2022-11-08T08:55:35.242Z,100249.47
2022-11-08T08:58:03.523Z,100243.38
2022-11-08T09:03:20.745Z,100232.00
2022-11-08T09:05:48.724Z,100238.78
2022-11-08T09:08:16.580Z,100237.84
2022-11-08T09:10:44.301Z,100237.94
2022-11-08T09:13:12.038Z,100231.34
2022-11-08T09:15:39.981Z,100238.56
2022-11-08T09:18:09.532Z,100229.81
2022-11-08T09:20:39.447Z,100228.75
2022-11-08T09:23:07.120Z,100226.66
2022-11-08T09:25:34.847Z,100221.38
2022-11-08T09:28:02.527Z,100222.25
2022-11-08T09:30:30.205Z,100214.09
2022-11-08T09:33:02.379Z,100220.59
2022-11-08T09:35:31.152Z,100218.38
2022-11-08T09:38:00.331Z,100216.78
2022-11-08T09:40:32.849Z,100118.72
2022-11-08T09:43:15.966Z,100226.47
2022-11-08T09:45:47.029Z,100223.59
2022-11-08T09:48:23.191Z,100173.19
2022-11-08T09:50:54.648Z,100208.34
2022-11-08T09:53:35.230Z,100210.66
2022-11-08T09:56:08.811Z,100212.06
2022-11-08T09:58:41.997Z,100207.97
2022-11-08T10:01:12.384Z,100203.56
2022-11-08T10:03:41.347Z,100201.19
2022-11-08T10:06:28.544Z,100214.47
2022-11-08T10:09:07.176Z,100210.66
2022-11-08T10:11:51.980Z,100194.25
2022-11-08T10:14:50.669Z,100191.69
2022-11-08T10:17:35.824Z,100193.91
2022-11-08T10:20:17.741Z,100191.47
2022-11-08T10:22:53.468Z,100197.31
2022-11-08T10:25:26.031Z,100175.34
2022-11-08T10:27:57.487Z,100177.84
2022-11-08T10:30:31.610Z,100165.69
2022-11-08T10:32:59.325Z,100166.63
2022-11-08T10:35:32.290Z,100158.69
2022-11-08T10:38:02.226Z,100171.38
2022-11-08T10:40:43.979Z,100141.50
2022-11-08T10:43:15.858Z,100161.41
2022-11-08T10:45:43.660Z,100159.53
2022-11-08T10:48:13.034Z,100147.41
2022-11-08T10:50:45.249Z,100154.81
2022-11-08T10:53:19.785Z,100144.50
2022-11-08T10:55:52.010Z,100115.91
2022-11-08T10:58:32.346Z,100127.91
2022-11-08T11:01:02.574Z,100131.66
2022-11-08T11:03:30.515Z,100125.94
2022-11-08T11:06:02.955Z,100122.38
2022-11-08T11:08:31.235Z,100106.28
2022-11-08T11:11:25.126Z,100110.22
2022-11-08T11:14:16.547Z,100105.84
2022-11-08T11:16:56.509Z,100111.22
2022-11-08T11:19:25.755Z,100100.03
2022-11-08T11:21:58.502Z,100092.09
2022-11-08T11:24:26.848Z,100102.84
2022-11-08T11:27:05.206Z,100098.06
2022-11-08T11:29:33.944Z,100071.97
2022-11-08T11:32:23.421Z,100075.63
2022-11-08T11:34:55.815Z,100070.44
2022-11-08T11:37:30.852Z,100084.75
2022-11-08T11:40:08.351Z,100064.53
2022-11-08T11:42:47.005Z,100038.28
2022-11-08T11:45:19.778Z,100073.84
2022-11-08T11:47:53.187Z,100060.25
2022-11-08T11:50:30.086Z,100050.44
2022-11-08T11:52:59.014Z,100047.38
2022-11-08T11:55:35.806Z,100056.06
2022-11-08T11:58:15.525Z,100060.72
2022-11-08T12:00:52.213Z,100022.47
2022-11-08T12:03:47.155Z,100049.03
2022-11-08T12:06:26.066Z,100052.84
2022-11-08T12:09:37.679Z,100033.06
2022-11-08T12:12:19.855Z,100039.69
2022-11-08T12:14:57.992Z,100040.41
2022-11-08T12:17:42.594Z,100039.91
2022-11-08T12:20:32.822Z,100006.66
2022-11-08T12:23:15.296Z,100013.09
2022-11-08T12:25:49.712Z,100036.00
2022-11-08T12:28:37.391Z,100012.88
2022-11-08T12:31:20.191Z,100010.06
2022-11-08T12:34:00.819Z,100035.31
2022-11-08T12:36:36.439Z,100034.56
2022-11-08T12:39:22.193Z,100011.50
2022-11-08T12:42:02.232Z,100015.38
2022-11-08T12:44:56.071Z,100002.44
2022-11-08T12:47:34.790Z,99999.34
2022-11-08T12:50:17.935Z,99987.63
2022-11-08T12:53:03.634Z,99989.09
2022-11-08T12:55:36.026Z,100000.53
2022-11-08T12:58:10.190Z,100008.13
2022-11-08T13:00:41.734Z,99980.09
2022-11-08T13:03:30.008Z,100003.63
2022-11-08T13:06:08.631Z,100000.22
2022-11-08T13:08:45.385Z,99994.47
2022-11-08T13:11:22.558Z,99999.28
2022-11-08T13:13:53.043Z,99983.00
2022-11-08T13:16:22.159Z,99995.97
2022-11-08T13:18:52.732Z,99969.22
2022-11-08T13:21:41.113Z,99982.28
2022-11-08T13:24:45.294Z,99984.63
2022-11-08T13:27:37.917Z,99984.69
2022-11-08T13:30:33.140Z,99984.47
2022-11-08T13:33:13.147Z,99982.81
2022-11-08T13:35:48.215Z,99981.50
2022-11-08T13:38:27.056Z,99986.25
2022-11-08T13:41:14.333Z,99989.56
2022-11-08T13:43:42.199Z,99979.53
2022-11-08T13:46:55.599Z,99985.28
2022-11-08T13:49:24.757Z,99978.06
2022-11-08T13:52:30.886Z,99974.50
2022-11-08T13:54:59.983Z,99954.22
2022-11-08T13:57:57.118Z,99964.25
2022-11-08T14:00:44.006Z,99910.44
2022-11-08T14:03:49.325Z,99948.06
2022-11-08T14:06:24.722Z,99843.47
2022-11-08T14:09:02.055Z,99941.09
2022-11-08T14:11:45.958Z,99935.41
2022-11-08T14:14:38.458Z,99933.66
2022-11-08T14:17:29.777Z,99928.78
2022-11-08T14:19:59.034Z,99924.16
2022-11-08T14:22:29.052Z,99921.91
2022-11-08T14:25:08.116Z,99915.50
2022-11-08T14:27:39.791Z,99926.28
2022-11-08T14:30:16.365Z,99921.13
2022-11-08T14:32:44.216Z,99921.81
2022-11-08T14:35:21.926Z,99924.50
2022-11-08T14:37:49.940Z,99924.00
2022-11-08T14:40:19.834Z,99924.84
2022-11-08T14:42:50.017Z,99936.97
2022-11-08T14:45:25.484Z,99921.97
2022-11-08T14:47:55.233Z,99933.50
2022-11-08T14:50:25.124Z,99930.44
2022-11-08T14:52:52.873Z,99926.91
2022-11-08T14:55:25.009Z,99907.31
2022-11-08T14:57:54.047Z,99924.00
2022-11-08T15:00:27.909Z,99920.13
2022-11-08T15:02:57.561Z,99935.81
2022-11-08T15:05:33.179Z,99931.91
2022-11-08T15:08:03.216Z,99929.19
2022-11-08T15:10:30.979Z,99936.25
2022-11-08T15:13:00.130Z,99936.81
2022-11-08T15:15:30.791Z,99929.72
2022-11-08T15:18:14.724Z,99937.59
2022-11-08T15:20:55.175Z,99935.91
2022-11-08T15:23:33.836Z,99935.06
2022-11-08T15:26:02.230Z,99842.63
2022-11-08T15:28:35.382Z,99941.34
2022-11-08T15:31:05.365Z,99929.44
2022-11-08T15:33:37.964Z,99924.44
2022-11-08T15:36:13.345Z,99925.59
2022-11-08T15:38:43.248Z,99933.47
2022-11-08T15:41:31.416Z,99916.09
2022-11-08T15:44:15.035Z,99932.78
2022-11-08T15:46:43.286Z,99927.72
2022-11-08T15:49:17.921Z,99935.59
2022-11-08T15:51:45.835Z,99934.22
2022-11-08T15:54:13.906Z,99924.03
2022-11-08T15:56:42.743Z,99919.41
2022-11-08T15:59:21.337Z,99929.47
2022-11-08T16:01:55.513Z,99938.25
2022-11-08T16:04:23.560Z,99929.47
2022-11-08T16:06:51.456Z,99930.34
2022-11-08T16:09:19.261Z,99932.88
2022-11-08T16:11:47.804Z,99920.91
2022-11-08T16:14:19.501Z,99918.47
2022-11-08T16:16:47.519Z,99927.41
2022-11-08T16:19:19.870Z,99911.97
2022-11-08T16:21:48.270Z,99919.69
2022-11-08T16:24:16.281Z,99930.13
2022-11-08T16:26:45.339Z,99928.56
2022-11-08T16:29:20.945Z,99940.66
2022-11-08T16:31:48.818Z,99931.25
2022-11-08T16:34:16.575Z,99926.16
2022-11-08T16:36:46.000Z,99909.13
2022-11-08T16:39:16.639Z,99934.34
2022-11-08T16:41:44.636Z,99943.16
2022-11-08T16:44:12.966Z,99904.19
2022-11-08T16:46:42.247Z,99951.84
2022-11-08T16:49:20.499Z,99913.53
2022-11-08T16:51:48.764Z,99951.75
2022-11-08T16:54:19.479Z,99934.25
2022-11-08T16:56:47.244Z,99940.94
2022-11-08T16:59:15.578Z,99951.97
2022-11-08T17:01:45.407Z,99958.91
2022-11-08T17:04:13.187Z,99949.44
2022-11-08T17:06:41.058Z,99945.81
2022-11-08T17:09:08.770Z,99956.75
2022-11-08T17:11:38.121Z,99955.75
2022-11-08T17:14:05.844Z,99959.84
2022-11-08T17:16:33.624Z,99943.47
2022-11-08T17:19:04.278Z,99955.50
2022-11-08T17:21:46.081Z,99939.44
2022-11-08T17:24:20.869Z,99960.84
2022-11-08T17:26:49.167Z,99955.59
2022-11-08T17:29:16.866Z,99635.34
2022-11-08T17:31:44.535Z,99967.38
2022-11-08T17:34:13.640Z,99937.00
2022-11-08T17:36:41.339Z,99970.06
2022-11-08T17:39:09.497Z,99969.16
2022-11-08T17:41:37.172Z,99967.38
2022-11-08T17:44:05.018Z,99956.22
2022-11-08T17:46:32.860Z,99941.78
2022-11-08T17:49:00.499Z,99957.28
2022-11-08T17:51:29.557Z,99953.19
2022-11-08T17:53:57.269Z,99945.09
2022-11-08T17:56:24.983Z,99963.31
2022-11-08T17:58:52.681Z,99952.88
2022-11-08T18:01:20.771Z,99970.69
2022-11-08T18:03:48.871Z,99960.75
2022-11-08T18:06:16.706Z,99958.13
2022-11-08T18:08:45.769Z,99969.56
2022-11-08T18:11:13.492Z,99956.59
2022-11-08T18:13:41.228Z,99971.88
2022-11-08T18:16:10.861Z,99953.69
2022-11-08T18:18:39.183Z,99959.69
2022-11-08T18:21:07.506Z,99913.66
2022-11-08T18:23:35.713Z,99961.97
2022-11-08T18:26:05.133Z,99931.28
2022-11-08T18:28:32.878Z,99955.03
2022-11-08T18:31:05.944Z,99908.84
2022-11-08T18:33:33.995Z,99950.13
2022-11-08T18:36:05.353Z,99956.59
2022-11-08T18:38:35.483Z,99958.22
2022-11-08T18:41:04.570Z,99961.91
2022-11-08T18:43:32.325Z,99958.44
2022-11-08T18:46:03.864Z,99935.47
2022-11-08T18:48:32.362Z,99927.69
2022-11-08T18:51:00.347Z,99911.53
2022-11-08T18:53:27.987Z,99957.28
2022-11-08T18:55:55.629Z,99952.13
2022-11-08T18:58:24.955Z,99948.56
2022-11-08T19:00:53.434Z,99928.53
2022-11-08T19:03:21.471Z,99954.81
2022-11-08T19:05:49.302Z,99955.81
2022-11-08T19:08:19.885Z,99915.22
2022-11-08T19:10:51.417Z,99964.63
2022-11-08T19:13:19.690Z,99947.03
2022-11-08T19:15:56.921Z,99925.91
2022-11-08T19:18:25.104Z,99925.88
2022-11-08T19:20:57.153Z,99949.03
2022-11-08T19:23:26.047Z,99922.47
2022-11-08T19:25:58.684Z,99937.59
2022-11-08T19:28:31.634Z,99892.09
2022-11-08T19:31:02.070Z,99942.13
2022-11-08T19:33:31.876Z,99945.81
2022-11-08T19:36:05.259Z,99952.75
2022-11-08T19:38:35.148Z,99874.44
2022-11-08T19:41:05.177Z,99940.56
2022-11-08T19:43:37.047Z,99944.81
2022-11-08T19:46:08.529Z,99936.06
2022-11-08T19:48:38.621Z,99959.13
2022-11-08T19:51:08.899Z,99952.91
2022-11-08T19:53:36.611Z,99949.63
2022-11-08T19:56:06.473Z,99954.22
2022-11-08T19:58:35.265Z,99967.66
2022-11-08T20:01:09.643Z,99963.47
2022-11-08T20:03:37.717Z,99956.50
2022-11-08T20:06:06.539Z,99974.06
2022-11-08T20:08:34.666Z,99957.13
2022-11-08T20:11:02.470Z,99961.38
2022-11-08T20:13:30.167Z,99968.72
2022-11-08T20:16:10.907Z,99965.56
2022-11-08T20:18:38.725Z,99980.19
2022-11-08T20:21:07.083Z,99974.19
2022-11-08T20:23:35.559Z,99983.72
2022-11-08T20:26:04.410Z,99967.59
2022-11-08T20:28:32.374Z,99967.44
2022-11-08T20:31:04.055Z,99969.50
2022-11-08T20:33:36.502Z,99960.78
2022-11-08T20:36:06.167Z,99901.03
2022-11-08T20:38:34.687Z,99960.16
2022-11-08T20:41:02.498Z,99974.09
2022-11-08T20:43:31.167Z,99959.81
2022-11-08T20:46:02.228Z,99979.06
2022-11-08T20:48:30.056Z,99945.09
2022-11-08T20:50:59.993Z,99964.59
2022-11-08T20:53:29.380Z,99926.44
2022-11-08T20:55:58.171Z,99961.03
2022-11-08T20:58:26.766Z,99943.06
2022-11-08T21:00:58.772Z,99959.41
2022-11-08T21:03:27.895Z,99921.34
2022-11-08T21:05:57.583Z,99968.38
2022-11-08T21:11:15.935Z,99962.34
2022-11-08T21:13:44.956Z,99965.63
2022-11-08T21:16:29.425Z,99968.44
2022-11-08T21:18:58.802Z,99966.88
2022-11-08T21:21:26.871Z,99926.13
2022-11-08T21:23:55.940Z,99946.44
2022-11-08T21:26:25.140Z,99947.94
2022-11-08T21:28:53.158Z,99960.09
2022-11-08T21:31:20.955Z,99961.22
2022-11-08T21:33:48.698Z,99956.97
2022-11-08T21:36:17.435Z,99967.44
2022-11-08T21:38:45.487Z,99968.41
2022-11-08T21:41:14.514Z,99964.19
2022-11-08T21:43:44.036Z,99966.09
2022-11-08T21:46:16.904Z,99950.59
2022-11-08T21:48:44.823Z,99961.59
2022-11-08T21:51:12.775Z,99947.19
2022-11-08T21:53:49.372Z,99942.63
2022-11-08T21:56:23.560Z,99954.28
2022-11-08T21:58:51.323Z,99956.72
2022-11-08T22:01:19.785Z,99954.56
2022-11-08T22:03:47.859Z,99938.72
2022-11-08T22:06:15.841Z,99937.53
2022-11-08T22:08:43.573Z,99940.72
2022-11-08T22:11:11.294Z,99942.28
2022-11-08T22:13:40.516Z,99944.03
2022-11-08T22:16:08.597Z,99946.72
2022-11-08T22:19:03.710Z,99944.34
2022-11-08T22:21:39.305Z,99926.34
2022-11-08T22:24:07.766Z,99935.78
2022-11-08T22:26:35.578Z,99939.50
2022-11-08T22:29:04.774Z,99935.47
2022-11-08T22:31:32.756Z,99927.56
2022-11-08T22:34:00.602Z,99938.28
2022-11-08T22:36:28.544Z,99904.41
2022-11-08T22:38:56.343Z,99932.50
2022-11-08T22:41:24.429Z,99936.00
2022-11-08T22:43:52.671Z,99939.34
2022-11-08T22:46:21.720Z,99917.72
2022-11-08T22:48:49.693Z,99918.66
2022-11-08T22:51:18.021Z,99915.34
2022-11-08T22:53:45.754Z,99914.50
2022-11-08T22:56:13.449Z,99915.28
2022-11-08T22:58:41.300Z,99901.59
2022-11-08T23:01:11.797Z,99916.19
2022-11-08T23:03:41.561Z,99918.03
2022-11-08T23:06:10.396Z,99896.69
2022-11-08T23:08:38.222Z,99925.16
2022-11-08T23:11:23.860Z,99918.34
2022-11-08T23:14:09.121Z,99891.53
2022-11-08T23:16:40.086Z,99910.19
2022-11-08T23:19:29.210Z,99921.88
2022-11-08T23:22:14.735Z,99893.06
2022-11-08T23:24:43.620Z,99898.59
2022-11-08T23:27:30.639Z,99918.56
2022-11-08T23:30:15.985Z,99918.69
2022-11-08T23:32:44.996Z,99929.09
2022-11-08T23:35:14.631Z,99923.94
2022-11-08T23:37:42.781Z,99915.97
2022-11-08T23:40:30.453Z,99920.41
2022-11-08T23:43:27.416Z,99916.78
2022-11-08T23:45:55.119Z,99919.56
2022-11-08T23:48:22.820Z,99917.72
2022-11-08T23:50:53.866Z,99916.66
2022-11-08T23:53:25.031Z,99928.88
2022-11-08T23:55:53.641Z,99875.97
2022-11-08T23:58:21.731Z,99909.09
